createdAt,value
2022-11-15T00:00:57.095Z,27.48
2022-11-15T00:03:26.370Z,27.13
2022-11-15T00:05:53.379Z,26.05
2022-11-15T00:08:20.846Z,25.40
2022-11-15T00:10:58.027Z,25.37
2022-11-15T00:13:25.435Z,23.70
2022-11-15T00:15:52.525Z,19.50
2022-11-15T00:18:20.145Z,20.88
2022-11-15T00:20:47.076Z,21.20
2022-11-15T00:23:13.951Z,21.62
2022-11-15T00:25:41.066Z,23.77
2022-11-15T00:28:07.920Z,24.73
2022-11-15T00:33:04.805Z,26.55
2022-11-15T00:35:35.724Z,22.25
2022-11-15T00:38:03.023Z,19.40
2022-11-15T00:40:29.980Z,20.23
2022-11-15T00:42:57.281Z,18.37
2022-11-15T00:45:24.768Z,18.10
2022-11-15T00:47:51.785Z,19.92
2022-11-15T00:50:19.201Z,16.73
2022-11-15T00:52:46.323Z,20.15
2022-11-15T00:55:20.225Z,19.90
2022-11-15T00:57:47.801Z,20.73
2022-11-15T01:00:15.077Z,20.77
2022-11-15T01:02:41.941Z,20.52
2022-11-15T01:07:36.139Z,20.48
2022-11-15T01:10:03.119Z,23.80
2022-11-15T01:12:29.989Z,26.27
2022-11-15T01:14:56.903Z,26.90
2022-11-15T01:17:23.856Z,32.10
2022-11-15T01:19:50.783Z,28.75
2022-11-15T01:22:17.986Z,30.90
2022-11-15T01:24:44.966Z,31.23
2022-11-15T01:27:11.818Z,26.65
2022-11-15T01:32:05.399Z,32.50
2022-11-15T01:34:32.276Z,36.00
2022-11-15T01:36:59.129Z,34.60
2022-11-15T01:41:52.892Z,32.95
2022-11-15T01:44:42.690Z,39.42
2022-11-15T01:47:21.568Z,38.28
2022-11-15T01:49:58.391Z,38.17
2022-11-15T01:52:26.809Z,37.78
2022-11-15T01:54:58.420Z,32.28
2022-11-15T01:57:25.473Z,41.83
2022-11-15T01:59:52.430Z,43.35
2022-11-15T02:02:19.344Z,46.30
2022-11-15T02:04:47.885Z,44.28
2022-11-15T02:07:17.493Z,40.92
2022-11-15T02:09:45.543Z,39.45
2022-11-15T02:12:16.039Z,44.92
2022-11-15T02:14:44.441Z,38.70
2022-11-15T02:17:20.246Z,40.50
2022-11-15T02:19:55.963Z,41.17
2022-11-15T02:22:41.549Z,38.58
2022-11-15T02:25:17.723Z,35.13
2022-11-15T02:28:22.288Z,31.75
2022-11-15T02:31:04.392Z,39.45
2022-11-15T02:33:45.209Z,31.80
2022-11-15T02:36:32.223Z,35.95
2022-11-15T02:39:00.534Z,35.80
2022-11-15T02:41:45.510Z,28.90
2022-11-15T02:44:20.584Z,28.12
2022-11-15T02:47:12.464Z,29.87
2022-11-15T02:50:02.326Z,28.08
2022-11-15T02:52:29.184Z,26.05
2022-11-15T02:57:46.563Z,26.55
2022-11-15T03:00:18.774Z,28.90
2022-11-15T03:03:10.297Z,23.25
2022-11-15T03:06:11.101Z,22.65
2022-11-15T03:09:04.717Z,20.55
2022-11-15T03:11:36.177Z,20.08
2022-11-15T03:14:27.922Z,20.80
2022-11-15T03:17:19.899Z,19.80
2022-11-15T03:19:48.992Z,19.73
2022-11-15T03:22:18.450Z,20.73
2022-11-15T03:24:47.049Z,20.08
2022-11-15T03:27:17.055Z,22.23
2022-11-15T03:29:53.974Z,20.92
2022-11-15T03:32:27.471Z,19.77
2022-11-15T03:35:00.387Z,19.33
2022-11-15T03:37:34.107Z,19.17
2022-11-15T03:40:01.303Z,20.83
2022-11-15T03:42:55.949Z,19.95
2022-11-15T03:45:33.836Z,18.55
2022-11-15T03:48:04.408Z,18.80
2022-11-15T03:50:31.399Z,20.17
2022-11-15T03:52:58.783Z,19.67
2022-11-15T03:55:25.904Z,17.95
2022-11-15T03:57:55.969Z,15.52
2022-11-15T04:00:23.003Z,15.95
2022-11-15T04:02:49.888Z,17.05
2022-11-15T04:05:16.800Z,18.75
2022-11-15T04:07:43.646Z,18.23
2022-11-15T04:10:12.168Z,17.95
2022-11-15T04:12:44.319Z,19.00
2022-11-15T04:15:13.179Z,17.58
2022-11-15T04:17:41.740Z,16.75
2022-11-15T04:20:31.861Z,18.40
2022-11-15T04:23:18.426Z,17.23
2022-11-15T04:25:45.875Z,17.62
2022-11-15T04:28:12.813Z,18.15
2022-11-15T04:30:40.042Z,18.00
2022-11-15T04:33:06.920Z,18.27
2022-11-15T04:35:33.950Z,18.27
2022-11-15T04:38:01.383Z,17.80
2022-11-15T04:40:28.239Z,18.73
2022-11-15T04:42:59.428Z,19.12
2022-11-15T04:45:30.160Z,18.58
2022-11-15T04:50:23.754Z,18.85
2022-11-15T04:52:55.125Z,18.80
2022-11-15T04:55:22.309Z,18.77
2022-11-15T04:57:49.181Z,18.62
2022-11-15T05:00:17.436Z,19.42
2022-11-15T05:03:02.941Z,18.67
2022-11-15T05:05:29.917Z,19.70
2022-11-15T05:07:56.787Z,19.20
2022-11-15T05:10:23.750Z,20.40
2022-11-15T05:12:50.625Z,20.90
2022-11-15T05:15:17.703Z,20.58
2022-11-15T05:17:44.613Z,20.77
2022-11-15T05:20:12.115Z,21.40
2022-11-15T05:22:39.511Z,20.20
2022-11-15T05:25:07.097Z,21.35
2022-11-15T05:27:34.979Z,23.23
2022-11-15T05:30:01.860Z,21.58
2022-11-15T05:32:29.539Z,22.45
2022-11-15T05:34:56.674Z,23.23
2022-11-15T05:37:23.739Z,22.67
2022-11-15T05:39:51.589Z,23.08
2022-11-15T05:42:18.616Z,25.30
2022-11-15T05:44:49.310Z,25.23
2022-11-15T05:47:25.131Z,26.25
2022-11-15T05:49:52.854Z,25.77
2022-11-15T05:52:29.474Z,26.40
2022-11-15T05:54:57.217Z,22.23
2022-11-15T05:57:24.081Z,24.65
2022-11-15T05:59:51.141Z,24.23
2022-11-15T06:02:18.106Z,23.90
2022-11-15T06:04:45.165Z,23.80
2022-11-15T06:07:12.109Z,24.20
2022-11-15T06:09:38.990Z,24.65
2022-11-15T06:14:32.669Z,21.45
2022-11-15T06:16:59.510Z,20.98
2022-11-15T06:21:53.102Z,22.50
2022-11-15T06:24:19.937Z,22.20
2022-11-15T06:29:13.461Z,19.25
2022-11-15T06:31:40.325Z,21.02
2022-11-15T06:36:36.315Z,23.55
2022-11-15T06:39:06.561Z,25.90
2022-11-15T06:41:36.558Z,26.02
2022-11-15T06:44:04.068Z,23.87
2022-11-15T06:46:30.959Z,24.50
2022-11-15T06:48:57.831Z,23.60
2022-11-15T06:51:24.709Z,26.05
2022-11-15T06:53:51.549Z,25.00
2022-11-15T06:58:45.400Z,24.90
2022-11-15T07:01:13.689Z,20.88
2022-11-15T07:03:42.657Z,20.95
2022-11-15T07:06:10.842Z,23.87
2022-11-15T07:08:38.011Z,22.27
2022-11-15T07:11:07.504Z,22.42
2022-11-15T07:13:35.750Z,22.20
2022-11-15T07:16:04.941Z,22.75
2022-11-15T07:18:31.801Z,23.17
2022-11-15T07:21:03.055Z,21.98
2022-11-15T07:23:30.221Z,24.05
2022-11-15T07:26:00.660Z,27.92
2022-11-15T07:28:27.912Z,25.25
2022-11-15T07:30:55.369Z,27.95
2022-11-15T07:33:22.491Z,27.05
2022-11-15T07:35:49.612Z,27.50
2022-11-15T07:38:17.241Z,26.05
2022-11-15T07:40:48.830Z,26.87
2022-11-15T07:43:15.752Z,29.10
2022-11-15T07:45:44.647Z,24.40
2022-11-15T07:48:11.884Z,23.12
2022-11-15T07:50:43.315Z,25.08
2022-11-15T07:53:11.596Z,26.15
2022-11-15T07:55:40.677Z,23.70
2022-11-15T07:58:09.521Z,24.05
2022-11-15T08:00:37.110Z,25.20
2022-11-15T08:03:05.004Z,29.00
2022-11-15T08:05:32.462Z,22.62
2022-11-15T08:07:59.764Z,25.17
2022-11-15T08:10:27.401Z,25.85
2022-11-15T08:13:01.715Z,24.05
2022-11-15T08:15:29.373Z,23.00
2022-11-15T08:18:00.030Z,23.73
2022-11-15T08:20:30.757Z,24.98
2022-11-15T08:22:58.920Z,25.62
2022-11-15T08:25:29.476Z,24.95
2022-11-15T08:27:59.818Z,24.42
2022-11-15T08:30:27.409Z,24.92
2022-11-15T08:32:55.152Z,25.40
2022-11-15T08:35:26.224Z,25.88
2022-11-15T08:37:56.118Z,24.77
2022-11-15T08:40:24.302Z,24.23
2022-11-15T08:42:51.238Z,24.20
2022-11-15T08:45:18.087Z,25.92
2022-11-15T08:50:18.223Z,24.55
2022-11-15T08:52:45.247Z,21.98
2022-11-15T08:55:12.116Z,23.40
2022-11-15T09:00:08.199Z,21.87
2022-11-15T09:02:35.079Z,25.45
2022-11-15T09:05:01.965Z,24.60
2022-11-15T09:07:31.087Z,21.50
2022-11-15T09:09:58.066Z,25.37
2022-11-15T09:12:25.893Z,24.23
2022-11-15T09:14:52.759Z,24.33
2022-11-15T09:17:24.373Z,22.92
2022-11-15T09:19:52.700Z,23.40
2022-11-15T09:22:19.629Z,22.23
2022-11-15T09:24:46.708Z,25.92
2022-11-15T09:27:14.388Z,24.87
2022-11-15T09:29:41.275Z,24.73
2022-11-15T09:32:08.443Z,25.08
2022-11-15T09:34:35.278Z,24.40
2022-11-15T09:39:28.889Z,24.50
2022-11-15T09:42:27.348Z,25.12
2022-11-15T09:44:54.246Z,23.77
2022-11-15T09:50:10.648Z,22.25
2022-11-15T09:52:38.528Z,23.27
2022-11-15T09:55:07.047Z,24.02
2022-11-15T09:57:55.889Z,21.67
2022-11-15T10:00:46.652Z,22.50
2022-11-15T10:03:22.477Z,22.92
2022-11-15T10:05:51.146Z,26.50
2022-11-15T10:08:37.408Z,21.58
2022-11-15T10:11:36.047Z,24.70
2022-11-15T10:14:03.467Z,25.45
2022-11-15T10:16:55.427Z,25.88
2022-11-15T10:19:29.685Z,21.05
2022-11-15T10:22:21.627Z,22.33
2022-11-15T10:24:49.160Z,20.62
2022-11-15T10:27:18.374Z,22.67
2022-11-15T10:29:49.321Z,21.92
2022-11-15T10:32:18.678Z,24.05
2022-11-15T10:34:46.513Z,23.48
2022-11-15T10:37:13.416Z,20.40
2022-11-15T10:39:42.259Z,22.33
2022-11-15T10:42:30.113Z,21.60
2022-11-15T10:44:56.960Z,21.35
2022-11-15T10:49:58.698Z,25.37
2022-11-15T10:52:26.449Z,21.80
2022-11-15T10:55:01.886Z,23.10
2022-11-15T10:57:32.328Z,22.45
2022-11-15T11:00:22.595Z,23.38
2022-11-15T11:03:31.801Z,21.70
2022-11-15T11:06:06.755Z,26.73
2022-11-15T11:08:38.808Z,25.12
2022-11-15T11:11:06.734Z,34.03
2022-11-15T11:13:37.816Z,23.55
2022-11-15T11:16:21.002Z,23.25
2022-11-15T11:22:39.640Z,22.92
2022-11-15T11:28:43.094Z,23.45
2022-11-15T11:31:29.041Z,21.20
2022-11-15T11:33:58.772Z,22.40
2022-11-15T11:36:50.806Z,22.17
2022-11-15T11:39:39.194Z,21.48
2022-11-15T11:42:23.097Z,23.08
2022-11-15T11:45:17.802Z,23.85
2022-11-15T11:47:49.871Z,23.23
2022-11-15T11:50:25.533Z,21.62
2022-11-15T11:53:03.458Z,21.75
2022-11-15T11:55:39.109Z,21.00
2022-11-15T11:58:11.257Z,21.95
2022-11-15T12:00:53.137Z,22.67
2022-11-15T12:03:42.214Z,22.08
2022-11-15T12:06:23.744Z,22.98
2022-11-15T12:08:55.125Z,23.55
2022-11-15T12:11:25.476Z,22.15
2022-11-15T12:13:59.667Z,22.48
2022-11-15T12:16:31.211Z,22.00
2022-11-15T12:19:08.916Z,21.27
2022-11-15T12:22:01.823Z,21.65
2022-11-15T12:24:38.865Z,20.67
2022-11-15T12:27:26.310Z,19.33
2022-11-15T12:32:34.109Z,19.77
2022-11-15T12:35:02.136Z,19.30
2022-11-15T12:37:44.138Z,20.33
2022-11-15T12:40:14.042Z,21.05
2022-11-15T12:42:43.684Z,17.45
2022-11-15T12:45:29.523Z,19.77
2022-11-15T12:48:17.772Z,20.80
2022-11-15T12:50:59.616Z,21.92
2022-11-15T12:53:26.524Z,21.85
2022-11-15T12:56:16.121Z,22.00
2022-11-15T12:58:49.829Z,19.95
2022-11-15T13:01:32.055Z,22.85
2022-11-15T13:04:21.053Z,21.87
2022-11-15T13:06:56.966Z,22.95
2022-11-15T13:09:44.313Z,21.42
2022-11-15T13:12:16.070Z,24.17
2022-11-15T13:14:49.823Z,26.15
2022-11-15T13:17:22.791Z,22.23
2022-11-15T13:23:05.067Z,21.35
2022-11-15T13:25:40.085Z,20.67
2022-11-15T13:28:16.047Z,18.50
2022-11-15T13:30:48.997Z,19.85
2022-11-15T13:33:19.377Z,19.58
2022-11-15T13:35:55.577Z,19.98
2022-11-15T13:38:25.430Z,18.73
2022-11-15T13:40:52.627Z,19.52
2022-11-15T13:43:22.512Z,20.20
2022-11-15T13:46:09.239Z,19.60
2022-11-15T13:48:36.601Z,18.98
2022-11-15T13:51:15.721Z,21.80
2022-11-15T13:53:47.683Z,23.10
2022-11-15T13:56:16.778Z,22.50
2022-11-15T13:58:43.915Z,24.92
2022-11-15T14:01:17.653Z,22.60
2022-11-15T14:04:01.701Z,25.20
2022-11-15T14:06:31.072Z,21.23
2022-11-15T14:09:16.271Z,21.02
2022-11-15T14:11:56.849Z,22.85
2022-11-15T14:14:26.303Z,23.08
2022-11-15T14:16:56.219Z,21.62
2022-11-15T14:19:23.045Z,24.52
2022-11-15T14:24:35.518Z,24.90
2022-11-15T14:27:23.875Z,28.30
2022-11-15T14:29:51.235Z,26.05
2022-11-15T14:32:29.631Z,28.95
2022-11-15T14:34:58.392Z,25.70
2022-11-15T14:37:35.696Z,27.95
2022-11-15T14:42:30.002Z,23.10
2022-11-15T14:44:56.878Z,29.40
2022-11-15T14:47:23.768Z,27.77
2022-11-15T14:49:50.651Z,28.98
2022-11-15T14:52:34.530Z,28.02
2022-11-15T14:55:03.446Z,34.47
2022-11-15T14:57:30.927Z,34.65
2022-11-15T14:59:58.075Z,34.67
2022-11-15T15:02:26.487Z,39.42
2022-11-15T15:04:53.698Z,36.22
2022-11-15T15:07:21.352Z,32.05
2022-11-15T15:09:48.519Z,31.83
2022-11-15T15:12:21.874Z,33.83
2022-11-15T15:14:50.439Z,39.22
2022-11-15T15:17:17.804Z,38.17
2022-11-15T15:19:44.719Z,35.90
2022-11-15T15:22:17.794Z,35.00
2022-11-15T15:24:45.437Z,33.47
2022-11-15T15:27:12.704Z,30.88
2022-11-15T15:29:40.139Z,36.33
2022-11-15T15:32:07.249Z,35.38
2022-11-15T15:34:34.790Z,40.80
2022-11-15T15:37:26.079Z,44.95
2022-11-15T15:39:53.821Z,42.80
2022-11-15T15:42:21.333Z,28.12
2022-11-15T15:44:49.079Z,41.03
2022-11-15T15:47:24.902Z,46.85
2022-11-15T15:49:52.129Z,39.42
2022-11-15T15:52:19.116Z,49.40
2022-11-15T15:54:46.242Z,39.72
2022-11-15T15:57:14.780Z,38.45
2022-11-15T15:59:41.741Z,41.63
2022-11-15T16:02:11.986Z,46.40
2022-11-15T16:04:39.183Z,46.40
2022-11-15T16:07:06.102Z,53.20
2022-11-15T16:09:51.600Z,43.17
2022-11-15T16:12:18.477Z,50.75
2022-11-15T16:14:45.319Z,51.10
2022-11-15T16:19:45.756Z,36.42
2022-11-15T16:22:12.622Z,38.28
2022-11-15T16:24:39.517Z,38.60
2022-11-15T16:27:06.484Z,42.58
2022-11-15T16:29:33.352Z,40.20
2022-11-15T16:32:00.269Z,42.03
2022-11-15T16:34:30.760Z,33.03
2022-11-15T16:36:59.188Z,41.63
2022-11-15T16:39:26.184Z,38.63
2022-11-15T16:41:53.057Z,40.65
2022-11-15T16:44:20.008Z,47.45
2022-11-15T16:46:52.021Z,53.47
2022-11-15T16:49:22.357Z,54.15
2022-11-15T16:51:50.643Z,45.55
2022-11-15T16:54:17.532Z,58.05
2022-11-15T16:56:44.406Z,45.15
2022-11-15T16:59:16.689Z,51.78
2022-11-15T17:01:50.732Z,48.05
2022-11-15T17:04:19.310Z,55.45
2022-11-15T17:06:47.975Z,58.25
2022-11-15T17:09:25.910Z,51.83
2022-11-15T17:11:53.066Z,56.65
2022-11-15T17:14:19.979Z,53.38
2022-11-15T17:16:47.088Z,55.53
2022-11-15T17:19:15.729Z,54.70
2022-11-15T17:21:43.478Z,62.08
2022-11-15T17:24:10.848Z,70.57
2022-11-15T17:26:40.774Z,72.62
2022-11-15T17:29:08.285Z,71.18
2022-11-15T17:31:36.450Z,64.10
2022-11-15T17:34:04.897Z,81.72
2022-11-15T17:36:31.988Z,74.68
2022-11-15T17:38:59.994Z,71.50
2022-11-15T17:41:27.937Z,66.72
2022-11-15T17:43:58.157Z,49.90
2022-11-15T17:46:25.081Z,44.85
2022-11-15T17:48:52.016Z,45.83
2022-11-15T17:51:19.515Z,55.72
2022-11-15T17:53:48.631Z,56.08
2022-11-15T17:56:17.502Z,57.60
2022-11-15T17:58:52.822Z,57.65
2022-11-15T18:01:22.161Z,51.37
2022-11-15T18:03:49.273Z,54.30
2022-11-15T18:06:16.865Z,56.03
2022-11-15T18:08:45.409Z,54.13
2022-11-15T18:11:21.075Z,42.40
2022-11-15T18:13:52.407Z,48.95
2022-11-15T18:16:21.855Z,44.67
2022-11-15T18:18:49.130Z,48.97
2022-11-15T18:21:20.305Z,44.22
2022-11-15T18:23:47.840Z,41.65
2022-11-15T18:26:16.433Z,44.67
2022-11-15T18:28:46.177Z,40.78
2022-11-15T18:31:15.579Z,46.67
2022-11-15T18:33:43.211Z,40.92
2022-11-15T18:36:13.140Z,41.17
2022-11-15T18:38:40.153Z,38.33
2022-11-15T18:41:09.334Z,40.12
2022-11-15T18:43:36.884Z,34.60
2022-11-15T18:46:15.397Z,43.33
2022-11-15T18:48:43.655Z,44.95
2022-11-15T18:51:12.643Z,37.10
2022-11-15T18:53:40.373Z,31.70
2022-11-15T18:56:12.395Z,35.20
2022-11-15T18:58:42.270Z,36.85
2022-11-15T19:01:20.192Z,37.63
2022-11-15T19:03:49.234Z,33.08
2022-11-15T19:06:20.777Z,29.33
2022-11-15T19:08:50.317Z,20.90
2022-11-15T19:11:21.864Z,18.98
2022-11-15T19:13:48.749Z,18.25
2022-11-15T19:16:16.352Z,17.85
2022-11-15T19:18:43.398Z,16.95
2022-11-15T19:21:14.831Z,16.98
2022-11-15T19:23:43.435Z,16.23
2022-11-15T19:26:15.572Z,16.20
2022-11-15T19:28:43.271Z,17.48
2022-11-15T19:31:15.021Z,20.75
2022-11-15T19:33:43.279Z,20.35
2022-11-15T19:36:13.336Z,20.20
2022-11-15T19:38:40.812Z,19.37
2022-11-15T19:41:12.992Z,20.70
2022-11-15T19:43:40.088Z,21.70
2022-11-15T19:46:07.946Z,20.15
2022-11-15T19:48:35.036Z,20.65
2022-11-15T19:51:07.120Z,19.80
2022-11-15T19:53:35.537Z,20.37
2022-11-15T19:56:11.646Z,20.90
2022-11-15T19:58:39.028Z,22.92
2022-11-15T20:01:08.661Z,21.42
2022-11-15T20:03:36.634Z,20.00
2022-11-15T20:06:07.728Z,20.62
2022-11-15T20:08:35.651Z,21.55
2022-11-15T20:11:04.507Z,21.50
2022-11-15T20:13:31.723Z,22.10
2022-11-15T20:15:58.885Z,21.37
2022-11-15T20:18:27.561Z,20.55
2022-11-15T20:20:59.303Z,21.17
2022-11-15T20:23:27.206Z,22.42
2022-11-15T20:25:54.543Z,22.23
2022-11-15T20:28:24.464Z,20.10
2022-11-15T20:30:54.195Z,16.67
2022-11-15T20:33:21.340Z,17.02
2022-11-15T20:35:48.626Z,17.70
2022-11-15T20:38:16.104Z,17.45
2022-11-15T20:40:45.535Z,18.92
2022-11-15T20:43:17.230Z,20.23
2022-11-15T20:45:45.752Z,19.60
2022-11-15T20:48:16.178Z,19.15
2022-11-15T20:50:44.507Z,18.50
2022-11-15T20:53:13.016Z,17.62
2022-11-15T20:55:41.572Z,17.60
2022-11-15T20:58:09.735Z,18.70
2022-11-15T21:00:37.164Z,19.52
2022-11-15T21:03:07.025Z,20.85
2022-11-15T21:05:38.800Z,18.05
2022-11-15T21:08:05.951Z,18.40
2022-11-15T21:10:51.545Z,18.17
2022-11-15T21:13:18.817Z,17.17
2022-11-15T21:15:45.744Z,18.90
2022-11-15T21:18:12.945Z,19.27
2022-11-15T21:20:39.831Z,18.30
2022-11-15T21:23:06.720Z,17.20
2022-11-15T21:25:34.194Z,17.60
2022-11-15T21:28:01.079Z,18.58
2022-11-15T21:30:28.193Z,20.52
2022-11-15T21:32:55.170Z,21.87
2022-11-15T21:35:22.767Z,20.42
2022-11-15T21:37:56.195Z,22.30
2022-11-15T21:40:24.132Z,21.15
2022-11-15T21:42:51.021Z,23.67
2022-11-15T21:45:17.906Z,22.08
2022-11-15T21:47:46.408Z,22.10
2022-11-15T21:50:14.009Z,24.98
2022-11-15T21:52:41.102Z,20.83
2022-11-15T21:55:08.972Z,21.70
2022-11-15T21:57:35.844Z,22.23
2022-11-15T22:00:21.148Z,20.77
2022-11-15T22:02:48.023Z,18.55
2022-11-15T22:05:14.913Z,19.02
2022-11-15T22:07:41.912Z,17.20
2022-11-15T22:10:09.199Z,17.77
2022-11-15T22:12:36.435Z,18.12
2022-11-15T22:15:03.540Z,19.87
2022-11-15T22:17:50.358Z,20.17
2022-11-15T22:20:43.132Z,18.70
2022-11-15T22:23:04.631Z,20.10
2022-11-15T22:25:31.782Z,22.15
2022-11-15T22:27:58.701Z,17.65
2022-11-15T22:30:25.760Z,21.58
2022-11-15T22:32:52.693Z,20.65
2022-11-15T22:35:19.612Z,20.05
2022-11-15T22:37:46.525Z,21.58
2022-11-15T22:40:13.459Z,21.98
2022-11-15T22:42:40.376Z,25.05
2022-11-15T22:45:07.891Z,26.48
2022-11-15T22:47:34.836Z,23.38
2022-11-15T22:50:01.845Z,20.50
2022-11-15T22:52:28.784Z,22.05
2022-11-15T22:54:55.714Z,24.02
2022-11-15T22:57:22.635Z,24.42
2022-11-15T22:59:49.591Z,24.67
2022-11-15T23:02:16.586Z,24.45
2022-11-15T23:04:43.558Z,26.90
2022-11-15T23:07:10.526Z,27.83
2022-11-15T23:09:37.567Z,28.75
2022-11-15T23:12:23.431Z,27.02
2022-11-15T23:14:50.368Z,25.00
2022-11-15T23:17:17.275Z,24.45
2022-11-15T23:19:44.218Z,25.98
2022-11-15T23:22:29.876Z,27.17
2022-11-15T23:24:56.834Z,26.52
2022-11-15T23:27:23.986Z,25.05
2022-11-15T23:30:09.228Z,22.15
2022-11-15T23:32:54.793Z,26.35
2022-11-15T23:35:21.855Z,27.58
2022-11-15T23:37:48.760Z,24.65
2022-11-15T23:40:15.682Z,26.92
2022-11-15T23:42:42.654Z,24.42
2022-11-15T23:45:10.088Z,29.35
2022-11-15T23:47:37.138Z,25.67
2022-11-15T23:50:04.305Z,30.83
2022-11-15T23:52:31.297Z,24.92
2022-11-15T23:54:58.294Z,27.77
2022-11-15T23:57:25.272Z,26.55
2022-11-15T23:59:52.203Z,27.83
